Legenda:
Basso (0-210)
Molto Alto (490 - 630)

Moderato (210 - 350)
Estremo (630 - 800)

Alto (350 - 490)
Molto estremo (800+)


 
212.09
Date Temp. (°C) Wind Speed (km/h) Rain (mm) RH Days Since Rain pwsFWI
La previsione è attiva (incluso oggi!), I valori sono sopra la linea rossa.
18/04/21 15.00 14.00 1.10 0.56 0 146.12
17/04/21 15.00 11.00 1.40 0.53 0 51.71
16/04/21 14.00 18.00 9.40 0.73 0 140.80
15/04/21 15.00 11.00 0.00 0.61 3 167.30
14/04/21 15.00 16.00 0.00 0.48 2 197.23
13/04/21 20.40 28.10 0.00 0.31 1 212.09
12/04/21 17.40 20.90 12.30 0.56 0 220.06
11/04/21 17.50 31.70 5.10 0.81 0 351.83
10/04/21 15.30 30.60 0.00 0.73 6 377.90
09/04/21 15.20 28.10 0.00 0.53 5 348.23
08/04/21 14.30 19.40 0.00 0.30 4 331.74
07/04/21 16.30 35.60 0.00 0.32 3 306.70
06/04/21 21.00 42.80 0.00 0.36 2 240.15
05/04/21 16.60 13.30 0.00 0.44 1 133.56
04/04/21 16.30 23.40 2.10 0.62 0 142.36
03/04/21 19.60 22.00 0.00 0.70 4 143.69
02/04/21 18.50 15.80 0.00 0.70 3 133.09
01/04/21 19.30 12.20 0.00 0.56 2 123.52
31/03/21 19.00 13.30 0.00 0.48 1 122.12
30/03/21 17.20 14.80 0.30 0.63 0 122.08
29/03/21 16.40 14.80 0.00 0.75 8 163.24
28/03/21 17.70 15.80 0.00 0.68 7 196.41
27/03/21 16.40 14.80 0.00 0.79 6 226.45
26/03/21 16.70 14.80 0.00 0.58 5 213.88
25/03/21 15.80 14.80 0.00 0.41 4 189.30
24/03/21 15.20 22.00 0.00 0.28 3 157.02
23/03/21 13.10 27.00 0.00 0.41 2 101.41
22/03/21 12.80 35.60 0.00 0.51 1 52.47
21/03/21 11.00 35.60 2.10 0.51 0 103.46
20/03/21 12.20 28.10 1.80 0.63 0 175.60
CumulusUtils Version 2.1.7 © Hans Rottier
Science background here. - NOTE: Behavioural testing still under way!
Prediction courtesy of https://www.yourweather.co.uk/